Time,TemperatureF,DewpointF,PressureIn,WindDirection,WindDirectionDegrees,WindSpeedMPH,WindSpeedGustMPH,Humidity,HourlyPrecipIn,Conditions,Clouds,dailyrainin,SoftwareType,DateUTC
2013-06-16 00:01:00,63.0,60.0,29.99,West,260,7.0,9.0,90,-99.99,,,-99.99,,2013-06-16 04:01:00,
2013-06-16 00:12:00,63.0,60.0,29.99,West,260,7.0,9.0,90,-99.99,,,-99.99,,2013-06-16 04:12:00,
2013-06-16 00:33:00,63.0,60.0,29.99,WSW,250,7.0,9.0,90,-99.99,,,-99.99,,2013-06-16 04:33:00,
2013-06-16 00:42:00,62.0,60.0,29.99,West,270,4.0,4.0,91,-99.99,,,-99.99,,2013-06-16 04:42:00,
2013-06-16 00:53:00,62.0,60.0,29.99,West,270,4.0,4.0,91,-99.99,,,-99.99,,2013-06-16 04:53:00,
2013-06-16 01:01:00,62.0,60.0,29.99,North,0,0.0,2.0,93,-99.99,,,-99.99,,2013-06-16 05:01:00,
2013-06-16 01:11:00,62.0,60.0,29.99,West,270,2.0,4.0,93,-99.99,,,-99.99,,2013-06-16 05:11:00,
2013-06-16 01:22:00,62.0,60.0,29.99,West,270,2.0,4.0,93,-99.99,,,-99.99,,2013-06-16 05:22:00,
2013-06-16 01:33:00,61.0,60.0,29.99,WNW,300,2.0,4.0,93,-99.99,,,-99.99,,2013-06-16 05:33:00,
2013-06-16 01:43:00,61.0,59.0,29.99,NNW,330,2.0,4.0,93,-99.99,,,-99.99,,2013-06-16 05:43:00,
2013-06-16 01:52:00,61.0,59.0,29.99,NNW,330,2.0,4.0,93,-99.99,,,-99.99,,2013-06-16 05:52:00,
2013-06-16 02:01:00,61.0,59.0,29.98,SSW,210,2.0,4.0,93,-99.99,,,-99.99,,2013-06-16 06:01:00,
2013-06-16 02:11:00,61.0,59.0,29.98,SSW,210,2.0,4.0,93,-99.99,,,-99.99,,2013-06-16 06:11:00,
2013-06-16 02:43:00,61.0,60.0,29.99,West,260,7.0,9.0,93,-99.99,,,-99.99,,2013-06-16 06:43:00,
2013-06-16 02:52:00,61.0,60.0,29.99,West,260,7.0,9.0,93,-99.99,,,-99.99,,2013-06-16 06:52:00,
2013-06-16 03:01:00,62.0,60.0,29.99,West,270,9.0,9.0,93,-99.99,,,-99.99,,2013-06-16 07:01:00,
2013-06-16 03:11:00,62.0,60.0,29.99,West,270,9.0,9.0,93,-99.99,,,-99.99,,2013-06-16 07:11:00,
2013-06-16 03:32:00,61.0,60.0,29.99,WNW,300,7.0,7.0,96,-99.99,,,-99.99,,2013-06-16 07:32:00,
2013-06-16 03:43:00,61.0,59.0,29.99,West,280,4.0,4.0,95,-99.99,,,-99.99,,2013-06-16 07:43:00,
2013-06-16 03:53:00,61.0,59.0,29.99,West,280,4.0,4.0,95,-99.99,,,-99.99,,2013-06-16 07:53:00,
2013-06-16 04:01:00,60.0,59.0,30.00,West,260,4.0,4.0,96,-99.99,,,-99.99,,2013-06-16 08:01:00,
2013-06-16 04:11:00,60.0,59.0,30.00,SW,230,2.0,4.0,96,-99.99,,,-99.99,,2013-06-16 08:11:00,
2013-06-16 04:22:00,60.0,59.0,30.00,SW,230,2.0,4.0,96,-99.99,,,-99.99,,2013-06-16 08:22:00,
2013-06-16 04:33:00,60.0,59.0,30.00,SW,230,4.0,7.0,96,-99.99,,,-99.99,,2013-06-16 08:33:00,
2013-06-16 04:43:00,60.0,58.0,30.00,WSW,250,4.0,7.0,96,-99.99,,,-99.99,,2013-06-16 08:43:00,
2013-06-16 04:54:00,60.0,58.0,30.00,WSW,250,4.0,7.0,96,-99.99,,,-99.99,,2013-06-16 08:54:00,
2013-06-16 05:01:00,59.0,58.0,30.00,West,270,4.0,7.0,96,-99.99,,,-99.99,,2013-06-16 09:01:00,
2013-06-16 05:11:00,59.0,58.0,30.00,West,270,4.0,7.0,96,-99.99,,,-99.99,,2013-06-16 09:11:00,
2013-06-16 05:33:00,59.0,58.0,29.99,West,280,4.0,4.0,96,-99.99,,,-99.99,,2013-06-16 09:33:00,
2013-06-16 05:42:00,59.0,58.0,29.99,West,280,4.0,4.0,96,-99.99,,,-99.99,,2013-06-16 09:42:00,
2013-06-16 05:52:00,59.0,58.0,29.99,West,280,4.0,4.0,96,-99.99,,,-99.99,,2013-06-16 09:52:00,
2013-06-16 06:01:00,59.0,58.0,29.99,West,270,4.0,7.0,97,-99.99,,,-99.99,,2013-06-16 10:01:00,
2013-06-16 06:11:00,59.0,58.0,29.99,West,270,4.0,7.0,97,-99.99,,,-99.99,,2013-06-16 10:11:00,
2013-06-16 06:33:00,60.0,59.0,29.99,WNW,290,4.0,4.0,95,-99.99,,,-99.99,,2013-06-16 10:33:00,
2013-06-16 06:42:00,60.0,59.0,30.00,WNW,290,4.0,4.0,93,-99.99,,,-99.99,,2013-06-16 10:42:00,
2013-06-16 06:53:00,60.0,59.0,30.00,WNW,290,4.0,4.0,93,-99.99,,,-99.99,,2013-06-16 10:53:00,
2013-06-16 07:02:00,60.0,58.0,30.00,West,270,4.0,4.0,93,-99.99,,,-99.99,,2013-06-16 11:02:00,
2013-06-16 07:11:00,60.0,58.0,30.00,West,270,4.0,4.0,93,-99.99,,,-99.99,,2013-06-16 11:11:00,
2013-06-16 07:33:00,62.0,58.0,30.00,NNW,340,2.0,4.0,85,-99.99,,,-99.99,,2013-06-16 11:33:00,
2013-06-16 07:43:00,65.0,58.0,30.00,ENE,60,2.0,2.0,76,-99.99,,,-99.99,,2013-06-16 11:43:00,
2013-06-16 07:52:00,65.0,58.0,30.00,ENE,60,2.0,2.0,76,-99.99,,,-99.99,,2013-06-16 11:52:00,
2013-06-16 08:11:00,66.0,57.0,30.00,North,0,0.0,2.0,72,-99.99,,,-99.99,,2013-06-16 12:11:00,
2013-06-16 08:22:00,66.0,57.0,30.00,North,0,0.0,2.0,72,-99.99,,,-99.99,,2013-06-16 12:22:00,
2013-06-16 08:32:00,67.0,57.0,30.00,WSW,250,2.0,4.0,70,-99.99,,,-99.99,,2013-06-16 12:32:00,
2013-06-16 08:42:00,67.0,56.0,30.00,West,260,4.0,4.0,67,-99.99,,,-99.99,,2013-06-16 12:42:00,
2013-06-16 08:53:00,67.0,56.0,30.00,West,260,4.0,4.0,67,-99.99,,,-99.99,,2013-06-16 12:53:00,
2013-06-16 09:01:00,64.0,56.0,30.00,West,260,4.0,4.0,74,-99.99,,,-99.99,,2013-06-16 13:01:00,
2013-06-16 09:11:00,66.0,56.0,30.00,WSW,240,4.0,7.0,69,-99.99,,,-99.99,,2013-06-16 13:11:00,
2013-06-16 09:22:00,66.0,56.0,30.00,WSW,240,4.0,7.0,69,-99.99,,,-99.99,,2013-06-16 13:22:00,
2013-06-16 09:34:00,65.0,57.0,29.99,WSW,240,4.0,7.0,74,-99.99,,,-99.99,,2013-06-16 13:34:00,
2013-06-16 09:42:00,63.0,58.0,29.99,WSW,240,4.0,7.0,82,-99.99,,,-99.99,,2013-06-16 13:42:00,
2013-06-16 09:53:00,63.0,58.0,29.99,WSW,240,4.0,7.0,82,-99.99,,,-99.99,,2013-06-16 13:53:00,
2013-06-16 10:01:00,63.0,58.0,29.99,West,260,4.0,4.0,84,-99.99,,,-99.99,,2013-06-16 14:01:00,
2013-06-16 10:12:00,64.0,59.0,29.99,West,280,2.0,4.0,84,-99.99,,,-99.99,,2013-06-16 14:12:00,
2013-06-16 10:22:00,64.0,59.0,29.99,West,280,2.0,4.0,84,-99.99,,,-99.99,,2013-06-16 14:22:00,
2013-06-16 10:33:00,64.0,59.0,29.98,WNW,290,4.0,4.0,84,-99.99,,,-99.99,,2013-06-16 14:33:00,
2013-06-16 10:43:00,65.0,60.0,29.98,West,270,2.0,4.0,84,-99.99,,,-99.99,,2013-06-16 14:43:00,
2013-06-16 10:52:00,65.0,60.0,29.98,West,270,2.0,4.0,84,-99.99,,,-99.99,,2013-06-16 14:52:00,
2013-06-16 11:01:00,65.0,60.0,29.97,West,270,2.0,2.0,84,-99.99,,,-99.99,,2013-06-16 15:01:00,
2013-06-16 11:12:00,66.0,60.0,29.97,North,0,0.0,2.0,81,-99.99,,,-99.99,,2013-06-16 15:12:00,
2013-06-16 11:22:00,66.0,60.0,29.97,North,0,0.0,2.0,81,-99.99,,,-99.99,,2013-06-16 15:22:00,
2013-06-16 11:33:00,68.0,61.0,29.97,North,0,0.0,2.0,77,-99.99,,,-99.99,,2013-06-16 15:33:00,
2013-06-16 11:42:00,67.0,61.0,29.96,West,270,2.0,4.0,80,-99.99,,,-99.99,,2013-06-16 15:42:00,
2013-06-16 11:52:00,67.0,61.0,29.96,West,270,2.0,4.0,80,-99.99,,,-99.99,,2013-06-16 15:52:00,
2013-06-16 12:01:00,65.0,61.0,29.96,WSW,240,2.0,4.0,85,-99.99,,,-99.99,,2013-06-16 16:01:00,
2013-06-16 12:11:00,66.0,61.0,29.96,North,0,0.0,2.0,85,-99.99,,,-99.99,,2013-06-16 16:11:00,
2013-06-16 12:22:00,66.0,61.0,29.96,North,0,0.0,2.0,85,-99.99,,,-99.99,,2013-06-16 16:22:00,
2013-06-16 12:33:00,66.0,61.0,29.95,North,0,0.0,2.0,84,-99.99,,,-99.99,,2013-06-16 16:33:00,
2013-06-16 12:43:00,66.0,61.0,29.94,North,0,0.0,2.0,83,-99.99,,,-99.99,,2013-06-16 16:43:00,
2013-06-16 12:53:00,66.0,61.0,29.94,North,0,0.0,2.0,83,-99.99,,,-99.99,,2013-06-16 16:53:00,
2013-06-16 13:01:00,66.0,61.0,29.93,SE,140,2.0,4.0,82,-99.99,,,-99.99,,2013-06-16 17:01:00,
2013-06-16 13:11:00,66.0,61.0,29.93,North,0,0.0,2.0,82,-99.99,,,-99.99,,2013-06-16 17:11:00,
2013-06-16 13:22:00,66.0,61.0,29.93,North,0,0.0,2.0,82,-99.99,,,-99.99,,2013-06-16 17:22:00,
2013-06-16 13:34:00,68.0,61.0,29.92,North,0,0.0,2.0,78,-99.99,,,-99.99,,2013-06-16 17:34:00,
2013-06-16 13:42:00,68.0,60.0,29.91,SSE,160,2.0,4.0,74,-99.99,,,-99.99,,2013-06-16 17:42:00,
2013-06-16 13:52:00,68.0,60.0,29.91,SSE,160,2.0,4.0,74,-99.99,,,-99.99,,2013-06-16 17:52:00,
2013-06-16 14:00:00,68.0,59.0,29.89,South,180,7.0,9.0,72,-99.99,,,-99.99,,2013-06-16 18:00:00,
2013-06-16 14:01:00,68.0,60.0,29.91,South,180,4.0,7.0,74,-99.99,,,-99.99,,2013-06-16 18:01:00,
2013-06-16 14:11:00,68.0,60.0,29.91,South,180,4.0,7.0,74,-99.99,,,-99.99,,2013-06-16 18:11:00,
2013-06-16 14:43:00,68.0,59.0,29.89,South,180,7.0,9.0,72,-99.99,,,-99.99,,2013-06-16 18:43:00,
2013-06-16 14:52:00,68.0,59.0,29.89,South,180,7.0,9.0,72,-99.99,,,-99.99,,2013-06-16 18:52:00,
2013-06-16 15:33:00,64.0,59.0,29.86,South,170,11.0,16.0,83,-99.99,,,-99.99,,2013-06-16 19:33:00,
2013-06-16 15:43:00,64.0,59.0,29.85,South,170,13.0,16.0,85,-99.99,,,-99.99,,2013-06-16 19:43:00,
2013-06-16 15:53:00,64.0,59.0,29.85,South,170,13.0,16.0,85,-99.99,,,-99.99,,2013-06-16 19:53:00,
2013-06-16 16:01:00,64.0,60.0,29.85,South,170,13.0,16.0,86,-99.99,,,-99.99,,2013-06-16 20:01:00,
2013-06-16 16:11:00,63.0,60.0,29.85,South,170,11.0,13.0,87,-99.99,,,-99.99,,2013-06-16 20:11:00,
2013-06-16 16:22:00,63.0,60.0,29.85,South,170,11.0,13.0,87,-99.99,,,-99.99,,2013-06-16 20:22:00,
2013-06-16 16:30:00,63.0,60.0,29.82,South,170,13.0,16.0,90,-99.99,,,-99.99,,2013-06-16 20:30:00,
2013-06-16 16:33:00,63.0,60.0,29.84,South,180,11.0,13.0,89,-99.99,,,-99.99,,2013-06-16 20:33:00,
2013-06-16 16:42:00,63.0,60.0,29.83,South,170,11.0,13.0,90,-99.99,,,-99.99,,2013-06-16 20:42:00,
2013-06-16 16:53:00,63.0,60.0,29.83,South,170,11.0,13.0,90,-99.99,,,-99.99,,2013-06-16 20:53:00,
2013-06-16 17:01:00,63.0,61.0,29.83,South,170,11.0,16.0,90,-99.99,,,-99.99,,2013-06-16 21:01:00,
2013-06-16 17:11:00,63.0,60.0,29.82,South,170,13.0,16.0,90,-99.99,,,-99.99,,2013-06-16 21:11:00,
2013-06-16 17:21:00,63.0,60.0,29.82,South,170,13.0,16.0,90,-99.99,,,-99.99,,2013-06-16 21:21:00,
2013-06-16 20:30:00,64.0,61.0,29.79,SSW,210,13.0,20.0,90,-99.99,,,-99.99,,2013-06-17 00:30:00,
2013-06-16 21:43:00,63.0,61.0,29.79,SSW,210,9.0,11.0,92,-99.99,,,-99.99,,2013-06-17 01:43:00,
2013-06-16 21:52:00,64.0,61.0,29.79,SW,220,11.0,13.0,90,-99.99,,,-99.99,,2013-06-17 01:52:00,
2013-06-16 22:02:00,64.0,61.0,29.81,WNW,300,7.0,11.0,90,-99.99,,,-99.99,,2013-06-17 02:02:00,
2013-06-16 22:11:00,66.0,62.0,29.81,WSW,250,7.0,11.0,87,-99.99,,,-99.99,,2013-06-17 02:11:00,
2013-06-16 22:22:00,66.0,62.0,29.81,WSW,250,7.0,11.0,87,-99.99,,,-99.99,,2013-06-17 02:22:00,
2013-06-16 22:33:00,65.0,62.0,29.82,WNW,290,4.0,9.0,87,-99.99,,,-99.99,,2013-06-17 02:33:00,
2013-06-16 22:43:00,64.0,62.0,29.83,NW,320,2.0,4.0,90,-99.99,,,-99.99,,2013-06-17 02:43:00,
2013-06-16 22:53:00,64.0,62.0,29.83,NW,320,2.0,4.0,90,-99.99,,,-99.99,,2013-06-17 02:53:00,
2013-06-16 23:01:00,64.0,62.0,29.83,West,280,7.0,11.0,90,-99.99,,,-99.99,,2013-06-17 03:01:00,
2013-06-16 23:11:00,65.0,62.0,29.83,West,270,11.0,13.0,89,-99.99,,,-99.99,,2013-06-17 03:11:00,
2013-06-16 23:22:00,65.0,62.0,29.83,West,270,11.0,13.0,89,-99.99,,,-99.99,,2013-06-17 03:22:00,
2013-06-16 23:33:00,64.0,62.0,29.83,West,280,9.0,13.0,90,-99.99,,,-99.99,,2013-06-17 03:33:00,
2013-06-16 23:44:00,63.0,61.0,29.84,WNW,300,7.0,9.0,92,-99.99,,,-99.99,,2013-06-17 03:44:00,
2013-06-16 23:53:00,63.0,61.0,29.84,WNW,300,7.0,9.0,92,-99.99,,,-99.99,,2013-06-17 03:53:00,